createdAt,value
2018-03-26T00:01:43.518Z,100617.22
2018-03-26T00:04:09.578Z,100613.70
2018-03-26T00:06:35.519Z,100620.70
2018-03-26T00:09:01.466Z,100615.92
2018-03-26T00:11:27.402Z,100618.83
2018-03-26T00:13:53.349Z,100625.34
2018-03-26T00:16:19.294Z,100623.77
2018-03-26T00:18:45.253Z,100624.30
2018-03-26T00:21:11.202Z,100628.63
2018-03-26T00:23:37.122Z,100631.61
2018-03-26T00:26:03.062Z,100633.06
2018-03-26T00:28:29.039Z,100630.72
2018-03-26T00:30:54.966Z,100628.44
2018-03-26T00:33:20.941Z,100631.19
2018-03-26T00:35:46.896Z,100628.77
2018-03-26T00:38:12.866Z,100629.39
2018-03-26T00:40:38.797Z,100635.84
2018-03-26T00:43:04.774Z,100634.66
2018-03-26T00:45:30.778Z,100632.52
2018-03-26T00:47:56.732Z,100624.20
2018-03-26T00:50:22.685Z,100629.27
2018-03-26T00:52:48.653Z,100631.91
2018-03-26T00:55:14.617Z,100632.23
2018-03-26T00:57:40.610Z,100630.67
2018-03-26T01:00:06.553Z,100630.44
2018-03-26T01:02:32.618Z,100636.88
2018-03-26T01:04:58.571Z,100633.15
2018-03-26T01:07:24.522Z,100637.09
2018-03-26T01:09:50.473Z,100639.62
2018-03-26T01:12:16.411Z,100636.62
2018-03-26T01:14:42.398Z,100636.01
2018-03-26T01:17:08.337Z,100641.28
2018-03-26T01:19:34.273Z,100647.81
2018-03-26T01:22:00.215Z,100649.80
2018-03-26T01:24:26.164Z,100649.05
2018-03-26T01:26:52.111Z,100654.53
2018-03-26T01:29:18.061Z,100665.15
2018-03-26T01:31:44.017Z,100660.91
2018-03-26T01:34:09.974Z,100665.91
2018-03-26T01:36:35.922Z,100657.45
2018-03-26T01:39:01.963Z,100665.97
2018-03-26T01:41:27.885Z,100669.52
2018-03-26T01:43:53.842Z,100669.72
2018-03-26T01:46:19.801Z,100670.06
2018-03-26T01:48:45.757Z,100675.54
2018-03-26T01:51:11.693Z,100684.48
2018-03-26T01:53:37.641Z,100685.67
2018-03-26T01:56:03.579Z,100686.58
2018-03-26T01:58:29.519Z,100697.11
2018-03-26T02:00:55.453Z,100697.89
2018-03-26T02:03:21.401Z,100698.65
2018-03-26T02:05:47.338Z,100697.89
2018-03-26T02:08:13.305Z,100702.19
2018-03-26T02:10:39.280Z,100700.74
2018-03-26T02:13:05.300Z,100706.48
2018-03-26T02:15:31.322Z,100704.70
2018-03-26T02:17:57.261Z,100703.78
2018-03-26T02:20:23.197Z,100717.22
2018-03-26T02:22:49.280Z,100718.41
2018-03-26T02:25:15.217Z,100717.88
2018-03-26T02:27:41.161Z,100720.30
2018-03-26T02:30:07.133Z,100720.34
2018-03-26T02:32:33.070Z,100721.61
2018-03-26T02:34:59.012Z,100718.98
2018-03-26T02:37:25.033Z,100722.28
2018-03-26T02:39:51.002Z,100719.19
2018-03-26T02:42:16.970Z,100723.89
2018-03-26T02:44:43.006Z,100719.10
2018-03-26T02:47:08.957Z,100728.41
2018-03-26T02:49:34.918Z,100736.45
2018-03-26T02:52:00.878Z,100731.05
2018-03-26T02:54:26.850Z,100735.47
2018-03-26T02:56:52.808Z,100743.16
2018-03-26T02:59:18.820Z,100740.19
2018-03-26T03:01:44.768Z,100741.30
2018-03-26T03:04:10.720Z,100747.89
2018-03-26T03:06:36.710Z,100743.66
2018-03-26T03:09:02.709Z,100746.70
2018-03-26T03:11:28.645Z,100751.72
2018-03-26T03:13:54.609Z,100742.83
2018-03-26T03:16:20.637Z,100746.49
2018-03-26T03:18:46.574Z,100748.59
2018-03-26T03:21:12.525Z,100751.92
2018-03-26T03:23:38.489Z,100752.33
2018-03-26T03:26:04.434Z,100751.34
2018-03-26T03:28:30.365Z,100756.13
2018-03-26T03:30:56.333Z,100756.55
2018-03-26T03:33:22.278Z,100754.60
2018-03-26T03:35:48.222Z,100766.54
2018-03-26T03:38:14.166Z,100763.81
2018-03-26T03:40:40.130Z,100767.06
2018-03-26T03:43:06.115Z,100771.38
2018-03-26T03:45:32.050Z,100766.15
2018-03-26T03:47:57.985Z,100767.47
2018-03-26T03:50:24.022Z,100764.91
2018-03-26T03:52:49.970Z,100766.42
2018-03-26T03:55:15.902Z,100764.20
2018-03-26T03:57:41.925Z,100770.66
2018-03-26T04:00:07.883Z,100763.28
2018-03-26T04:02:33.819Z,100759.08
2018-03-26T04:04:59.861Z,100766.20
2018-03-26T04:07:25.809Z,100765.92
2018-03-26T04:09:51.753Z,100778.63
2018-03-26T04:12:17.722Z,100783.91
2018-03-26T04:14:43.654Z,100782.92
2018-03-26T04:17:09.594Z,100785.48
2018-03-26T04:19:35.531Z,100785.07
2018-03-26T04:22:01.461Z,100785.49
2018-03-26T04:24:27.430Z,100786.11
2018-03-26T04:26:53.369Z,100788.21
2018-03-26T04:29:19.320Z,100794.02
2018-03-26T04:31:45.329Z,100793.98
2018-03-26T04:34:11.274Z,100795.83
2018-03-26T04:36:37.214Z,100791.88
2018-03-26T04:39:03.157Z,100796.33
2018-03-26T04:41:29.126Z,100799.54
2018-03-26T04:43:55.074Z,100801.31
2018-03-26T04:46:21.058Z,100804.24
2018-03-26T04:48:46.988Z,100804.52
2018-03-26T04:51:12.933Z,100803.83
2018-03-26T04:53:38.865Z,100809.84
2018-03-26T04:56:04.817Z,100802.59
2018-03-26T04:58:30.770Z,100807.78
2018-03-26T05:00:56.704Z,100807.50
2018-03-26T05:03:22.641Z,100805.89
2018-03-26T05:05:48.574Z,100809.23
2018-03-26T05:08:14.534Z,100813.27
2018-03-26T05:10:40.478Z,100816.59
2018-03-26T05:13:06.462Z,100818.83
2018-03-26T05:15:32.396Z,100822.37
2018-03-26T05:17:58.394Z,100824.43
2018-03-26T05:20:24.338Z,100829.30
2018-03-26T05:22:50.278Z,100833.37
2018-03-26T05:25:16.218Z,100835.06
2018-03-26T05:27:42.177Z,100839.14
2018-03-26T05:30:08.110Z,100842.48
2018-03-26T05:32:34.061Z,100845.23
2018-03-26T05:35:00.050Z,100849.63
2018-03-26T05:37:26.026Z,100856.89
2018-03-26T05:39:51.973Z,100856.35
2018-03-26T05:42:17.976Z,100870.23
2018-03-26T05:44:43.932Z,100861.50
2018-03-26T05:47:09.864Z,100868.34
2018-03-26T05:49:35.890Z,100870.56
2018-03-26T05:52:01.844Z,100878.50
2018-03-26T05:54:27.806Z,100880.29
2018-03-26T05:56:53.849Z,100882.92
2018-03-26T05:59:19.805Z,100893.69
2018-03-26T06:01:45.801Z,100892.08
2018-03-26T06:04:11.828Z,100894.50
2018-03-26T06:06:37.881Z,100891.05
2018-03-26T06:09:03.805Z,100899.23
2018-03-26T06:11:29.742Z,100902.29
2018-03-26T06:13:55.749Z,100898.95
2018-03-26T06:16:21.690Z,100901.17
2018-03-26T06:18:47.689Z,100913.12
2018-03-26T06:21:13.621Z,100907.41
2018-03-26T06:23:39.650Z,100918.73
2018-03-26T06:26:05.618Z,100920.54
2018-03-26T06:28:31.550Z,100925.41
2018-03-26T06:30:57.490Z,100927.96
2018-03-26T06:33:23.454Z,100934.84
2018-03-26T06:35:49.398Z,100934.84
2018-03-26T06:38:15.350Z,100937.94
2018-03-26T06:40:41.444Z,100939.41
2018-03-26T06:43:07.430Z,100942.05
2018-03-26T06:45:33.379Z,100948.03
2018-03-26T06:47:59.329Z,100943.36
2018-03-26T06:50:25.274Z,100947.24
2018-03-26T06:52:51.222Z,100947.65
2018-03-26T06:55:17.197Z,100950.38
2018-03-26T06:57:43.178Z,100951.70
2018-03-26T07:00:09.131Z,100957.17
2018-03-26T07:02:35.162Z,100960.59
2018-03-26T07:05:01.122Z,100965.08
2018-03-26T07:07:27.067Z,100964.80
2018-03-26T07:09:53.185Z,100966.61
2018-03-26T07:12:19.535Z,100970.27
2018-03-26T07:14:45.465Z,100973.33
2018-03-26T07:17:11.398Z,100973.70
2018-03-26T07:19:37.354Z,100977.45
2018-03-26T07:22:03.297Z,100979.30
2018-03-26T07:24:29.235Z,100978.56
2018-03-26T07:26:55.197Z,100986.30
2018-03-26T07:29:21.146Z,100988.17
2018-03-26T07:31:47.105Z,100995.59
2018-03-26T07:34:13.057Z,100995.14
2018-03-26T07:36:39.086Z,100996.58
2018-03-26T07:39:05.034Z,100995.05
2018-03-26T07:41:31.066Z,100995.95
2018-03-26T07:43:57.026Z,101002.18
2018-03-26T07:46:22.966Z,100997.60
2018-03-26T07:48:48.947Z,100997.36
2018-03-26T07:51:14.920Z,101001.97
2018-03-26T07:53:40.873Z,101005.67
2018-03-26T07:56:06.830Z,101010.09
2018-03-26T07:58:32.770Z,101011.91
2018-03-26T08:00:58.761Z,101016.22
2018-03-26T08:03:24.780Z,101016.06
2018-03-26T08:05:50.749Z,101019.97
2018-03-26T08:08:16.690Z,101020.39
2018-03-26T08:10:42.663Z,101026.73
2018-03-26T08:13:08.605Z,101022.81
2018-03-26T08:15:34.546Z,101030.48
2018-03-26T08:18:00.579Z,101039.52
2018-03-26T08:20:26.529Z,101036.75
2018-03-26T08:22:52.485Z,101040.42
2018-03-26T08:25:18.407Z,101034.90
2018-03-26T08:27:44.341Z,101045.28
2018-03-26T08:30:10.286Z,101045.98
2018-03-26T08:32:36.253Z,101045.36
2018-03-26T08:35:02.215Z,101050.14
2018-03-26T08:37:28.176Z,101056.25
2018-03-26T08:39:54.128Z,101050.02
2018-03-26T08:42:20.157Z,101052.45
2018-03-26T08:44:46.020Z,101043.77
2018-03-26T08:47:11.960Z,101048.91
2018-03-26T08:49:38.014Z,101044.13
2018-03-26T08:52:03.973Z,101048.62
2018-03-26T08:54:29.980Z,101044.88
2018-03-26T08:56:55.917Z,101040.50
2018-03-26T08:59:21.943Z,101048.13
2018-03-26T09:01:47.888Z,101050.02
2018-03-26T09:04:13.829Z,101049.53
2018-03-26T09:06:39.804Z,101049.73
2018-03-26T09:09:05.746Z,101053.00
2018-03-26T09:11:31.761Z,101049.82
2018-03-26T09:13:57.792Z,101054.80
2018-03-26T09:16:23.822Z,101049.45
2018-03-26T09:18:49.785Z,101048.22
2018-03-26T09:21:15.742Z,101044.47
2018-03-26T09:23:41.704Z,101048.83
2018-03-26T09:26:07.695Z,101052.92
2018-03-26T09:28:33.603Z,101042.61
2018-03-26T09:30:59.606Z,101048.92
2018-03-26T09:33:25.533Z,101046.20
2018-03-26T09:35:51.494Z,101043.64
2018-03-26T09:38:17.544Z,101044.18
2018-03-26T09:40:43.528Z,101045.23
2018-03-26T09:43:09.470Z,101044.34
2018-03-26T09:45:35.422Z,101046.98
2018-03-26T09:48:01.369Z,101050.77
2018-03-26T09:50:27.310Z,101047.02
2018-03-26T09:52:53.267Z,101043.77
2018-03-26T09:55:19.218Z,101050.77
2018-03-26T09:57:45.165Z,101048.85
2018-03-26T10:00:11.097Z,101049.56
2018-03-26T10:02:37.057Z,101046.22
2018-03-26T10:05:03.013Z,101042.54
2018-03-26T10:07:28.980Z,101046.64
2018-03-26T10:09:54.934Z,101042.54
2018-03-26T10:12:20.902Z,101044.77
2018-03-26T10:14:46.841Z,101044.97
2018-03-26T10:17:12.775Z,101049.12
2018-03-26T10:19:38.849Z,101054.25
2018-03-26T10:22:04.801Z,101050.45
2018-03-26T10:24:30.743Z,101056.05
2018-03-26T10:26:56.725Z,101044.61
2018-03-26T10:29:22.693Z,101051.27
2018-03-26T10:31:48.653Z,101051.61
2018-03-26T10:34:14.734Z,101052.48
2018-03-26T10:36:40.881Z,101052.10
2018-03-26T10:39:06.914Z,101051.20
2018-03-26T10:41:32.873Z,101055.11
2018-03-26T10:43:58.823Z,101051.07
2018-03-26T10:46:24.785Z,101047.65
2018-03-26T10:48:50.729Z,101049.88
2018-03-26T10:51:16.702Z,101042.46
2018-03-26T10:53:42.859Z,101050.05
2018-03-26T10:56:08.818Z,101053.59
2018-03-26T10:58:34.777Z,101047.89
2018-03-26T11:01:00.734Z,101051.85
2018-03-26T11:03:26.721Z,101053.30
2018-03-26T11:05:52.791Z,101050.94
2018-03-26T11:08:18.888Z,101052.26
2018-03-26T11:10:44.851Z,101053.30
2018-03-26T11:13:10.823Z,101058.28
2018-03-26T11:15:36.785Z,101060.51
2018-03-26T11:18:02.737Z,101055.16
2018-03-26T11:20:28.680Z,101052.80
2018-03-26T11:22:54.622Z,101053.38
2018-03-26T11:25:20.565Z,101055.36
2018-03-26T11:27:46.542Z,101056.88
2018-03-26T11:30:12.517Z,101054.00
2018-03-26T11:32:38.474Z,101053.22
2018-03-26T11:35:04.437Z,101056.14
2018-03-26T11:37:30.417Z,101055.03
2018-03-26T11:39:56.354Z,101053.38
2018-03-26T11:42:22.298Z,101048.85
2018-03-26T11:44:48.245Z,101057.38
2018-03-26T11:47:14.185Z,101057.45
2018-03-26T11:49:40.169Z,101053.63
2018-03-26T11:52:06.154Z,101055.52
2018-03-26T11:54:32.117Z,101052.47
2018-03-26T11:56:58.065Z,101052.19
2018-03-26T11:59:24.068Z,101049.67
2018-03-26T12:01:50.007Z,101058.98
2018-03-26T12:04:15.946Z,101053.59
2018-03-26T12:06:41.930Z,101048.63
2018-03-26T12:09:07.885Z,101043.30
2018-03-26T12:11:33.918Z,101044.41
2018-03-26T12:13:59.934Z,101045.52
2018-03-26T12:16:25.818Z,101058.70
2018-03-26T12:18:51.780Z,101043.23
2018-03-26T12:21:17.738Z,101040.23
2018-03-26T12:23:43.679Z,101046.98
2018-03-26T12:26:09.646Z,101043.98
2018-03-26T12:28:35.626Z,101044.77
2018-03-26T12:31:01.577Z,101040.23
2018-03-26T12:33:27.515Z,101043.16
2018-03-26T12:35:53.454Z,101044.55
2018-03-26T12:38:19.398Z,101050.53
2018-03-26T12:40:45.458Z,101048.97
2018-03-26T12:43:11.402Z,101052.59
2018-03-26T12:45:37.360Z,101045.02
2018-03-26T12:48:03.342Z,101050.56
2018-03-26T12:50:29.382Z,101056.05
2018-03-26T12:52:55.338Z,101057.59
2018-03-26T12:55:21.321Z,101058.97
2018-03-26T12:57:47.273Z,101058.42
2018-03-26T13:00:13.214Z,101059.06
2018-03-26T13:02:39.177Z,101061.83
2018-03-26T13:05:05.115Z,101058.02
2018-03-26T13:07:31.060Z,101055.66
2018-03-26T13:09:57.013Z,101052.50
2018-03-26T13:12:22.995Z,101047.97
2018-03-26T13:14:48.940Z,101050.40
2018-03-26T13:17:14.878Z,101046.94
2018-03-26T13:19:40.847Z,101047.63
2018-03-26T13:22:06.830Z,101045.53
2018-03-26T13:24:32.828Z,101048.09
2018-03-26T13:26:58.773Z,101048.59
2018-03-26T13:29:24.727Z,101045.20
2018-03-26T13:31:50.665Z,101050.52
2018-03-26T13:34:16.650Z,101050.94
2018-03-26T13:36:42.589Z,101051.09
2018-03-26T13:39:08.535Z,101044.78
2018-03-26T13:41:34.495Z,101045.45
2018-03-26T13:44:00.453Z,101050.94
2018-03-26T13:46:26.462Z,101049.48
2018-03-26T13:48:52.404Z,101045.95
2018-03-26T13:51:18.350Z,101049.08
2018-03-26T13:53:44.304Z,101051.72
2018-03-26T13:56:10.306Z,101050.89
2018-03-26T13:58:36.314Z,101052.55
2018-03-26T14:01:02.242Z,101049.98
2018-03-26T14:03:28.183Z,101058.81
2018-03-26T14:05:54.149Z,101055.80
2018-03-26T14:08:20.126Z,101061.04
2018-03-26T14:10:46.098Z,101063.59
2018-03-26T14:13:12.049Z,101057.41
2018-03-26T14:15:38.047Z,101059.30
2018-03-26T14:18:03.986Z,101056.86
2018-03-26T14:20:29.990Z,101061.58
2018-03-26T14:22:55.938Z,101068.46
2018-03-26T14:25:21.926Z,101068.59
2018-03-26T14:27:47.973Z,101069.41
2018-03-26T14:30:13.931Z,101067.05
2018-03-26T14:32:39.939Z,101070.48
2018-03-26T14:35:06.009Z,101074.16
2018-03-26T14:37:31.974Z,101076.02
2018-03-26T14:39:57.920Z,101070.20
2018-03-26T14:42:23.894Z,101069.41
2018-03-26T14:44:49.830Z,101065.12
2018-03-26T14:47:15.805Z,101069.16
2018-03-26T14:49:41.757Z,101063.39
2018-03-26T14:52:07.734Z,101068.80
2018-03-26T14:54:33.766Z,101060.13
2018-03-26T14:56:59.801Z,101059.55
2018-03-26T14:59:25.845Z,101059.21
2018-03-26T15:01:51.870Z,101062.19
2018-03-26T15:04:17.889Z,101051.30
2018-03-26T15:06:43.826Z,101069.56
2018-03-26T15:09:09.848Z,101063.52
2018-03-26T15:11:35.790Z,101067.22
2018-03-26T15:14:01.753Z,101063.18
2018-03-26T15:16:27.702Z,101061.95
2018-03-26T15:18:54.088Z,101062.90
2018-03-26T15:21:20.038Z,101059.96
2018-03-26T15:23:46.004Z,101063.93
2018-03-26T15:26:11.989Z,101059.43
2018-03-26T15:28:37.933Z,101059.43
2018-03-26T15:31:03.908Z,101058.45
2018-03-26T15:33:29.844Z,101055.14
2018-03-26T15:35:55.814Z,101056.02
2018-03-26T15:38:21.766Z,101055.80
2018-03-26T15:40:47.721Z,101055.05
2018-03-26T15:43:13.741Z,101056.25
2018-03-26T15:45:39.677Z,101052.09
2018-03-26T15:48:05.722Z,101054.64
2018-03-26T15:50:31.730Z,101054.92
2018-03-26T15:52:57.682Z,101058.52
2018-03-26T15:55:23.655Z,101062.19
2018-03-26T15:57:49.595Z,101066.02
2018-03-26T16:00:15.552Z,101067.76
2018-03-26T16:02:41.506Z,101062.47
2018-03-26T16:05:07.478Z,101064.57
2018-03-26T16:07:33.523Z,101066.34
2018-03-26T16:09:59.503Z,101070.55
2018-03-26T16:12:25.469Z,101066.80
2018-03-26T16:14:51.410Z,101063.95
2018-03-26T16:17:17.360Z,101065.11
2018-03-26T16:19:43.318Z,101067.91
2018-03-26T16:22:09.275Z,101058.18
2018-03-26T16:24:35.239Z,101067.34
2018-03-26T16:27:01.216Z,101069.08
2018-03-26T16:29:27.146Z,101075.75
2018-03-26T16:31:53.265Z,101075.88
2018-03-26T16:34:19.205Z,101073.11
2018-03-26T16:36:45.260Z,101069.43
2018-03-26T16:39:11.305Z,101070.80
2018-03-26T16:41:37.250Z,101074.06
2018-03-26T16:44:03.194Z,101070.59
2018-03-26T16:46:29.163Z,101072.61
2018-03-26T16:48:55.145Z,101073.17
2018-03-26T16:51:21.078Z,101069.68
2018-03-26T16:53:47.019Z,101074.34
2018-03-26T16:56:12.962Z,101064.20
2018-03-26T16:58:38.905Z,101065.88
2018-03-26T17:01:04.877Z,101065.94
2018-03-26T17:03:30.825Z,101073.64
2018-03-26T17:05:56.783Z,101071.20
2018-03-26T17:08:22.762Z,101073.93
2018-03-26T17:10:48.784Z,101068.64
2018-03-26T17:13:14.706Z,101070.75
2018-03-26T17:15:40.655Z,101071.37
2018-03-26T17:18:06.593Z,101066.99
2018-03-26T17:20:32.542Z,101070.25
2018-03-26T17:22:58.505Z,101064.36
2018-03-26T17:25:24.472Z,101070.05
2018-03-26T17:27:50.410Z,101074.14
2018-03-26T17:30:16.409Z,101072.41
2018-03-26T17:32:42.358Z,101071.08
2018-03-26T17:35:08.319Z,101069.64
2018-03-26T17:37:34.257Z,101066.30
2018-03-26T17:40:00.210Z,101071.57
2018-03-26T17:42:26.172Z,101068.45
2018-03-26T17:44:52.142Z,101069.42
2018-03-26T17:47:18.110Z,101073.84
2018-03-26T17:49:44.067Z,101070.87
2018-03-26T17:52:10.006Z,101071.41
2018-03-26T17:54:36.051Z,101072.32
2018-03-26T17:57:02.019Z,101069.89
2018-03-26T17:59:27.973Z,101079.33
2018-03-26T18:01:53.926Z,101072.32
2018-03-26T18:04:19.886Z,101071.50
2018-03-26T18:06:45.825Z,101079.28
2018-03-26T18:09:11.801Z,101074.70
2018-03-26T18:11:37.747Z,101076.28
2018-03-26T18:14:03.715Z,101076.91
2018-03-26T18:16:29.706Z,101080.61
2018-03-26T18:18:55.673Z,101080.94
2018-03-26T18:21:21.646Z,101087.89
2018-03-26T18:23:47.598Z,101082.67
2018-03-26T18:26:13.558Z,101079.48
2018-03-26T18:28:39.506Z,101083.95
2018-03-26T18:31:05.466Z,101090.58
2018-03-26T18:33:31.479Z,101089.22
2018-03-26T18:35:57.410Z,101091.27
2018-03-26T18:38:23.361Z,101089.62
2018-03-26T18:40:49.320Z,101087.89
2018-03-26T18:43:15.263Z,101081.09
2018-03-26T18:45:41.221Z,101079.61
2018-03-26T18:48:07.187Z,101082.25
2018-03-26T18:50:33.137Z,101084.20
2018-03-26T18:52:59.109Z,101083.98
2018-03-26T18:55:25.079Z,101090.58
2018-03-26T18:57:51.071Z,101084.68
2018-03-26T19:00:17.073Z,101088.55
2018-03-26T19:02:43.101Z,101083.08
2018-03-26T19:05:09.032Z,101088.84
2018-03-26T19:07:34.991Z,101082.87
2018-03-26T19:10:00.992Z,101085.45
2018-03-26T19:12:26.951Z,101085.71
2018-03-26T19:14:52.927Z,101081.92
2018-03-26T19:17:18.873Z,101082.20
2018-03-26T19:19:44.867Z,101087.61
2018-03-26T19:22:10.814Z,101081.70
2018-03-26T19:24:36.781Z,101092.30
2018-03-26T19:27:02.734Z,101087.69
2018-03-26T19:29:28.691Z,101089.62
2018-03-26T19:31:54.656Z,101089.88
2018-03-26T19:34:20.634Z,101087.82
2018-03-26T19:36:46.701Z,101092.54
2018-03-26T19:39:12.667Z,101097.47
2018-03-26T19:41:38.711Z,101091.86
2018-03-26T19:44:04.666Z,101100.38
2018-03-26T19:46:30.609Z,101107.26
2018-03-26T19:48:56.666Z,101113.01
2018-03-26T19:51:22.620Z,101109.53
2018-03-26T19:53:48.562Z,101116.70
2018-03-26T19:56:14.501Z,101117.32
2018-03-26T19:58:40.445Z,101114.19
2018-03-26T20:01:06.415Z,101121.00
2018-03-26T20:03:32.386Z,101119.80
2018-03-26T20:05:58.344Z,101122.32
2018-03-26T20:08:24.317Z,101130.78
2018-03-26T20:10:50.272Z,101131.75
2018-03-26T20:13:16.331Z,101133.56
2018-03-26T20:15:42.297Z,101123.55
2018-03-26T20:18:08.265Z,101131.24
2018-03-26T20:20:34.238Z,101124.84
2018-03-26T20:23:00.226Z,101124.14
2018-03-26T20:25:26.190Z,101133.16
2018-03-26T20:27:52.158Z,101130.98
2018-03-26T20:30:18.110Z,101132.75
2018-03-26T20:32:44.102Z,101135.19
2018-03-26T20:35:10.047Z,101132.80
2018-03-26T20:37:36.010Z,101131.89
2018-03-26T20:40:01.998Z,101132.67
2018-03-26T20:42:27.937Z,101129.63
2018-03-26T20:44:53.880Z,101129.13
2018-03-26T20:47:19.849Z,101130.86
2018-03-26T20:49:45.816Z,101138.48
2018-03-26T20:52:11.755Z,101136.91
2018-03-26T20:54:37.697Z,101142.83
2018-03-26T20:57:03.639Z,101134.94
2018-03-26T20:59:29.686Z,101134.20
2018-03-26T21:01:55.631Z,101135.33
2018-03-26T21:04:21.565Z,101135.75
2018-03-26T21:06:47.568Z,101137.00
2018-03-26T21:09:13.551Z,101133.03
2018-03-26T21:11:39.521Z,101131.94
2018-03-26T21:14:05.681Z,101130.59
2018-03-26T21:16:31.676Z,101122.97
2018-03-26T21:18:57.622Z,101122.34
2018-03-26T21:21:23.603Z,101123.25
2018-03-26T21:23:49.642Z,101121.92
2018-03-26T21:26:15.609Z,101124.56
2018-03-26T21:28:41.565Z,101123.93
2018-03-26T21:31:07.662Z,101118.37
2018-03-26T21:33:33.629Z,101119.80
2018-03-26T21:35:59.617Z,101115.81
2018-03-26T21:38:25.573Z,101120.31
2018-03-26T21:40:51.531Z,101120.59
2018-03-26T21:43:17.481Z,101123.07
2018-03-26T21:45:43.465Z,101114.69
2018-03-26T21:48:09.497Z,101120.17
2018-03-26T21:50:35.453Z,101118.89
2018-03-26T21:53:01.395Z,101118.98
2018-03-26T21:55:27.334Z,101111.84
2018-03-26T21:57:53.270Z,101116.42
2018-03-26T22:00:19.213Z,101112.45
2018-03-26T22:02:45.170Z,101115.64
2018-03-26T22:05:11.146Z,101111.27
2018-03-26T22:07:37.127Z,101111.05
2018-03-26T22:10:03.154Z,101114.89
2018-03-26T22:12:29.101Z,101114.38
2018-03-26T22:14:55.067Z,101115.58
2018-03-26T22:17:21.049Z,101116.73
2018-03-26T22:19:47.018Z,101108.34
2018-03-26T22:22:12.974Z,101111.84
2018-03-26T22:24:38.945Z,101115.79
2018-03-26T22:27:04.897Z,101113.67
2018-03-26T22:29:30.862Z,101115.09
2018-03-26T22:31:56.908Z,101106.27
2018-03-26T22:34:22.883Z,101103.22
2018-03-26T22:36:48.817Z,101110.50
2018-03-26T22:39:14.766Z,101102.02
2018-03-26T22:41:40.726Z,101109.81
2018-03-26T22:44:06.687Z,101107.23
2018-03-26T22:46:32.654Z,101111.47
2018-03-26T22:48:58.598Z,101105.48
2018-03-26T22:51:24.569Z,101112.45
2018-03-26T22:53:50.526Z,101111.83
2018-03-26T22:56:16.460Z,101106.39
2018-03-26T22:58:42.410Z,101109.11
2018-03-26T23:01:08.353Z,101107.30
2018-03-26T23:03:34.314Z,101105.69
2018-03-26T23:06:00.256Z,101109.51
2018-03-26T23:08:26.310Z,101111.12
2018-03-26T23:10:52.253Z,101111.66
2018-03-26T23:13:18.266Z,101112.50
2018-03-26T23:15:44.307Z,101108.33
2018-03-26T23:18:10.313Z,101115.59
2018-03-26T23:20:36.365Z,101111.72
2018-03-26T23:23:02.338Z,101115.63
2018-03-26T23:25:28.279Z,101121.80
2018-03-26T23:27:54.223Z,101121.44
2018-03-26T23:30:20.206Z,101120.73
2018-03-26T23:32:46.137Z,101110.52
2018-03-26T23:35:13.869Z,101113.48
2018-03-26T23:37:39.821Z,101111.91
2018-03-26T23:40:05.765Z,101110.27
2018-03-26T23:42:31.759Z,101113.61
2018-03-26T23:44:57.718Z,101112.94
2018-03-26T23:47:23.661Z,101112.94
2018-03-26T23:49:49.630Z,101109.80
2018-03-26T23:52:15.573Z,101109.14
2018-03-26T23:54:41.537Z,101106.78
2018-03-26T23:57:07.495Z,101108.47
2018-03-26T23:59:33.442Z,101110.26
